createdAt,value
2022-12-14T17:28:44.910Z,22.43
2022-12-14T17:33:54.007Z,22.13
2022-12-14T17:38:59.475Z,21.27
2022-12-14T17:44:05.352Z,20.53
2022-12-14T17:49:13.245Z,21.10
2022-12-14T17:54:24.619Z,20.80
2022-12-14T17:59:28.307Z,20.37
2022-12-14T18:04:33.715Z,22.23
2022-12-14T18:09:39.135Z,22.27
2022-12-14T18:14:45.226Z,24.40
2022-12-14T18:19:51.319Z,27.25
2022-12-14T18:24:56.721Z,28.27
2022-12-14T18:30:02.202Z,24.90
2022-12-14T18:35:09.804Z,23.20
2022-12-14T18:40:17.917Z,23.73
2022-12-14T18:45:26.405Z,23.83
2022-12-14T18:50:32.075Z,27.63
2022-12-14T18:55:37.546Z,30.47
2022-12-14T19:00:43.033Z,26.90
2022-12-14T19:05:48.607Z,25.90
2022-12-14T19:10:54.036Z,25.47
2022-12-14T19:15:59.581Z,25.33
2022-12-14T19:21:06.448Z,25.37
2022-12-14T19:26:12.306Z,24.63
2022-12-14T19:31:18.746Z,27.93
2022-12-14T19:36:24.991Z,28.23
2022-12-14T19:41:31.632Z,29.50
2022-12-14T19:46:37.221Z,32.17
2022-12-14T19:51:42.720Z,30.17
2022-12-14T19:56:49.199Z,29.60
2022-12-14T20:01:54.963Z,29.53
2022-12-14T20:07:00.903Z,30.50
2022-12-14T20:12:08.560Z,30.70
2022-12-14T20:17:15.220Z,32.20
2022-12-14T20:22:20.795Z,31.87
2022-12-14T20:27:26.693Z,31.23
2022-12-14T20:32:32.264Z,32.83
2022-12-14T20:37:38.147Z,31.10
2022-12-14T20:42:44.048Z,33.57
2022-12-14T20:47:51.370Z,35.93
2022-12-14T20:52:56.845Z,35.60
2022-12-14T20:58:02.698Z,37.30
2022-12-14T21:03:08.367Z,35.03
2022-12-14T21:08:15.731Z,36.37
2022-12-14T21:13:21.117Z,35.80
2022-12-14T21:18:26.790Z,48.50
2022-12-14T21:23:32.837Z,38.00
2022-12-14T21:28:38.348Z,36.07
2022-12-14T21:33:49.744Z,32.97
2022-12-14T21:38:54.317Z,34.40
2022-12-14T21:44:00.753Z,36.30
2022-12-14T21:49:06.975Z,34.13
2022-12-14T21:54:15.548Z,36.03
2022-12-14T21:59:38.844Z,36.10
2022-12-14T22:04:47.095Z,33.80
2022-12-14T22:09:52.696Z,34.63
2022-12-14T22:14:58.265Z,37.10
2022-12-14T22:20:04.084Z,35.67
2022-12-14T22:25:10.175Z,37.03
2022-12-14T22:30:15.641Z,48.80
2022-12-14T22:35:21.245Z,38.87
2022-12-14T22:40:26.971Z,38.30
2022-12-14T22:45:32.362Z,36.60
2022-12-14T22:50:37.760Z,34.27
2022-12-14T22:55:45.108Z,34.70
2022-12-14T23:00:54.201Z,33.60
2022-12-14T23:06:02.233Z,34.73
2022-12-14T23:11:24.975Z,33.40
2022-12-14T23:16:49.965Z,36.43
2022-12-14T23:22:13.476Z,33.30
2022-12-14T23:27:36.945Z,34.73
2022-12-14T23:33:00.166Z,35.77
2022-12-14T23:38:25.495Z,37.13
2022-12-14T23:43:48.684Z,37.27
2022-12-14T23:49:15.905Z,37.23
2022-12-14T23:54:37.259Z,37.07
